SWA4095 KSAN-KMKE
Flight info
| Callsign | SWA4095 |
|---|---|
| Flight time | 3h 15m |
| Altitude | 39000 |
| Route | ZZOOO4 MTBAL EED J236 TBC KD45S RODDY HGO GLD KD60A LNK JORDY OGECA GOPAC3 |
| Aircraft | B738/M-SADE2E3GIJ4RWZ/LB1D1 |
Departure
| Time | 2026-04-24 22:18 |
|---|---|
| Airport | San Diego International Airport (KSAN) |
Arrival
| Time | 2026-04-25 01:33 |
|---|---|
| Airport | General Mitchell International Airport (KMKE) |
| Time | Latitude | Longitude | Altitude | Speed | Heading |
|---|---|---|---|---|---|
| 2026-04-24 21:51 | 32.73287 | -117.19555 | 25 ft | 0 kts | 275° |
| 2026-04-24 22:10 | 32.73286 | -117.19553 | 21 ft | 2 kts | 275° |
| 2026-04-24 22:10 | 32.73285 | -117.19534 | 21 ft | 2 kts | 275° |
| 2026-04-24 22:10 | 32.73284 | -117.19515 | 24 ft | 2 kts | 275° |
| 2026-04-24 22:10 | 32.73281 | -117.19495 | 22 ft | 2 kts | 298° |
| 2026-04-24 22:11 | 32.73272 | -117.19484 | 26 ft | 1 kts | 358° |
| 2026-04-24 22:11 | 32.73268 | -117.19483 | 21 ft | 0 kts | 3° |
| 2026-04-24 22:11 | 32.73269 | -117.19483 | 21 ft | 3 kts | 5° |
| 2026-04-24 22:12 | 32.73315 | -117.19440 | 22 ft | 10 kts | 50° |
| 2026-04-24 22:12 | 32.73344 | -117.19366 | 21 ft | 10 kts | 91° |
| 2026-04-24 22:12 | 32.73329 | -117.19286 | 22 ft | 10 kts | 105° |
| 2026-04-24 22:12 | 32.73310 | -117.19202 | 21 ft | 11 kts | 105° |
| 2026-04-24 22:13 | 32.73286 | -117.19105 | 24 ft | 13 kts | 106° |
| 2026-04-24 22:13 | 32.73259 | -117.18994 | 22 ft | 15 kts | 106° |
| 2026-04-24 22:13 | 32.73228 | -117.18873 | 24 ft | 16 kts | 107° |
| 2026-04-24 22:13 | 32.73198 | -117.18744 | 19 ft | 16 kts | 105° |
| 2026-04-24 22:14 | 32.73169 | -117.18619 | 26 ft | 15 kts | 105° |
| 2026-04-24 22:14 | 32.73141 | -117.18500 | 26 ft | 15 kts | 105° |
| 2026-04-24 22:14 | 32.73112 | -117.18386 | 24 ft | 14 kts | 108° |
| 2026-04-24 22:14 | 32.73086 | -117.18277 | 26 ft | 13 kts | 105° |
| 2026-04-24 22:15 | 32.73060 | -117.18172 | 24 ft | 13 kts | 106° |
| 2026-04-24 22:15 | 32.73036 | -117.18071 | 25 ft | 13 kts | 106° |
| 2026-04-24 22:15 | 32.73012 | -117.17974 | 26 ft | 12 kts | 106° |
| 2026-04-24 22:15 | 32.72987 | -117.17878 | 24 ft | 12 kts | 107° |
| 2026-04-24 22:16 | 32.72963 | -117.17785 | 25 ft | 12 kts | 108° |
| 2026-04-24 22:16 | 32.72951 | -117.17693 | 24 ft | 10 kts | 78° |
| 2026-04-24 22:16 | 32.72972 | -117.17614 | 24 ft | 10 kts | 72° |
| 2026-04-24 22:16 | 32.73010 | -117.17569 | 24 ft | 8 kts | 327° |
| 2026-04-24 22:17 | 32.73038 | -117.17650 | 24 ft | 26 kts | 286° |
| 2026-04-24 22:17 | 32.73156 | -117.18136 | 23 ft | 95 kts | 286° |
| 2026-04-24 22:17 | 32.73387 | -117.19104 | 22 ft | 150 kts | 284° |
| 2026-04-24 22:17 | 32.73715 | -117.20444 | 285 ft | 179 kts | 284° |
| 2026-04-24 22:18 | 32.74083 | -117.21918 | 828 ft | 197 kts | 283° |
| 2026-04-24 22:18 | 32.74480 | -117.23590 | 1025 ft | 222 kts | 283° |
| 2026-04-24 22:18 | 32.74922 | -117.25450 | 1320 ft | 243 kts | 283° |
| 2026-04-24 22:18 | 32.75395 | -117.27410 | 2064 ft | 245 kts | 283° |
| 2026-04-24 22:19 | 32.75860 | -117.29324 | 2897 ft | 239 kts | 284° |
| 2026-04-24 22:19 | 32.76321 | -117.31230 | 3542 ft | 240 kts | 285° |
| 2026-04-24 22:19 | 32.76505 | -117.33167 | 4114 ft | 241 kts | 260° |
| 2026-04-24 22:19 | 32.75841 | -117.34992 | 4649 ft | 245 kts | 230° |
| 2026-04-24 22:20 | 32.74467 | -117.36182 | 5217 ft | 249 kts | 200° |
| 2026-04-24 22:20 | 32.72752 | -117.36381 | 5820 ft | 253 kts | 170° |
| 2026-04-24 22:20 | 32.71138 | -117.35507 | 6362 ft | 262 kts | 144° |
| 2026-04-24 22:20 | 32.69846 | -117.33962 | 6932 ft | 265 kts | 131° |
| 2026-04-24 22:21 | 32.68667 | -117.32268 | 7531 ft | 268 kts | 131° |
| 2026-04-24 22:21 | 32.67469 | -117.30552 | 8093 ft | 271 kts | 132° |
| 2026-04-24 22:21 | 32.66242 | -117.28837 | 8732 ft | 273 kts | 133° |
| 2026-04-24 22:21 | 32.64993 | -117.27117 | 9315 ft | 277 kts | 134° |
| 2026-04-24 22:22 | 32.63735 | -117.25364 | 9934 ft | 281 kts | 129° |
| 2026-04-24 22:22 | 32.62958 | -117.23195 | 10345 ft | 297 kts | 101° |
| 2026-04-24 22:22 | 32.62720 | -117.20667 | 10501 ft | 319 kts | 96° |
| 2026-04-24 22:22 | 32.62513 | -117.17960 | 10687 ft | 340 kts | 96° |
| 2026-04-24 22:23 | 32.62278 | -117.15128 | 10831 ft | 359 kts | 97° |
| 2026-04-24 22:23 | 32.62019 | -117.12098 | 11060 ft | 375 kts | 95° |
| 2026-04-24 22:23 | 32.62265 | -117.08991 | 11465 ft | 384 kts | 71° |
| 2026-04-24 22:23 | 32.63239 | -117.06026 | 12098 ft | 386 kts | 67° |
| 2026-04-24 22:24 | 32.64261 | -117.03058 | 12629 ft | 392 kts | 67° |
| 2026-04-24 22:24 | 32.65276 | -117.00021 | 13183 ft | 397 kts | 68° |
| 2026-04-24 22:24 | 32.66277 | -116.96949 | 13767 ft | 402 kts | 70° |
| 2026-04-24 22:24 | 32.66832 | -116.93722 | 14252 ft | 407 kts | 89° |
| 2026-04-24 22:25 | 32.66836 | -116.90349 | 14816 ft | 410 kts | 91° |
| 2026-04-24 22:25 | 32.66852 | -116.86947 | 15366 ft | 415 kts | 90° |
| 2026-04-24 22:25 | 32.66913 | -116.83502 | 15923 ft | 420 kts | 90° |
| 2026-04-24 22:25 | 32.67167 | -116.80026 | 16444 ft | 426 kts | 76° |
| 2026-04-24 22:26 | 32.68350 | -116.76794 | 16916 ft | 429 kts | 53° |
| 2026-04-24 22:26 | 32.70327 | -116.74181 | 17500 ft | 424 kts | 35° |
| 2026-04-24 22:26 | 32.72816 | -116.72370 | 18050 ft | 418 kts | 18° |
| 2026-04-24 22:26 | 32.75506 | -116.71051 | 18561 ft | 420 kts | 15° |
| 2026-04-24 22:27 | 32.78243 | -116.69768 | 19007 ft | 425 kts | 15° |
| 2026-04-24 22:27 | 32.81006 | -116.68475 | 19511 ft | 428 kts | 15° |
| 2026-04-24 22:27 | 32.83782 | -116.67155 | 20042 ft | 430 kts | 15° |
| 2026-04-24 22:27 | 32.86533 | -116.65826 | 20537 ft | 434 kts | 16° |
| 2026-04-24 22:28 | 32.89334 | -116.64457 | 21016 ft | 437 kts | 16° |
| 2026-04-24 22:28 | 32.92156 | -116.63071 | 21492 ft | 440 kts | 16° |
| 2026-04-24 22:28 | 32.95001 | -116.61670 | 21963 ft | 443 kts | 16° |
| 2026-04-24 22:28 | 32.97859 | -116.60264 | 22450 ft | 446 kts | 16° |
| 2026-04-24 22:29 | 33.05703 | -116.56316 | 23629 ft | 455 kts | 17° |
| 2026-04-24 22:29 | 33.08607 | -116.54789 | 23968 ft | 457 kts | 17° |
| 2026-04-24 22:30 | 33.11528 | -116.53246 | 24303 ft | 460 kts | 17° |
| 2026-04-24 22:30 | 33.14466 | -116.51697 | 24631 ft | 463 kts | 17° |
| 2026-04-24 22:30 | 33.17428 | -116.50139 | 24916 ft | 467 kts | 17° |
| 2026-04-24 22:30 | 33.20410 | -116.48574 | 25272 ft | 469 kts | 17° |
| 2026-04-24 22:31 | 33.23410 | -116.47001 | 25584 ft | 472 kts | 17° |
| 2026-04-24 22:31 | 33.26386 | -116.45440 | 25926 ft | 474 kts | 17° |
| 2026-04-24 22:31 | 33.29415 | -116.43850 | 26109 ft | 477 kts | 17° |
| 2026-04-24 22:31 | 33.32477 | -116.42241 | 26321 ft | 481 kts | 17° |
| 2026-04-24 22:32 | 33.35543 | -116.40626 | 26740 ft | 481 kts | 17° |
| 2026-04-24 22:32 | 33.38597 | -116.38905 | 27099 ft | 489 kts | 25° |
| 2026-04-24 22:32 | 33.41287 | -116.36290 | 27267 ft | 508 kts | 45° |
| 2026-04-24 22:32 | 33.43402 | -116.32937 | 27586 ft | 513 kts | 52° |
| 2026-04-24 22:33 | 33.45437 | -116.29414 | 27913 ft | 515 kts | 52° |
| 2026-04-24 22:33 | 33.47474 | -116.25858 | 28168 ft | 518 kts | 52° |
| 2026-04-24 22:33 | 33.49532 | -116.22310 | 28465 ft | 519 kts | 52° |
| 2026-04-24 22:33 | 33.51616 | -116.18772 | 28820 ft | 520 kts | 52° |
| 2026-04-24 22:34 | 33.53721 | -116.15237 | 29115 ft | 522 kts | 51° |
| 2026-04-24 22:34 | 33.55841 | -116.11690 | 29386 ft | 524 kts | 51° |
| 2026-04-24 22:34 | 33.57944 | -116.08167 | 29658 ft | 526 kts | 52° |
| 2026-04-24 22:34 | 33.60068 | -116.04601 | 30001 ft | 525 kts | 51° |
| 2026-04-24 22:35 | 33.62303 | -116.01152 | 30351 ft | 522 kts | 46° |
| 2026-04-24 22:35 | 33.64695 | -115.97896 | 30690 ft | 520 kts | 43° |
| 2026-04-24 22:35 | 33.67168 | -115.94726 | 30945 ft | 521 kts | 42° |
| 2026-04-24 22:35 | 33.69671 | -115.91569 | 31173 ft | 522 kts | 41° |
| 2026-04-24 22:36 | 33.72170 | -115.88399 | 31443 ft | 523 kts | 42° |
| 2026-04-24 22:36 | 33.74646 | -115.85210 | 31745 ft | 522 kts | 43° |
| 2026-04-24 22:36 | 33.77109 | -115.81991 | 32029 ft | 523 kts | 43° |
| 2026-04-24 22:36 | 33.79564 | -115.78747 | 32275 ft | 524 kts | 43° |
| 2026-04-24 22:37 | 33.82014 | -115.75491 | 32508 ft | 525 kts | 43° |
| 2026-04-24 22:37 | 33.84459 | -115.72230 | 32761 ft | 525 kts | 43° |
| 2026-04-24 22:37 | 33.86898 | -115.68973 | 33042 ft | 524 kts | 43° |
| 2026-04-24 22:37 | 33.89340 | -115.65711 | 33307 ft | 524 kts | 43° |
| 2026-04-24 22:38 | 33.91751 | -115.62492 | 33535 ft | 525 kts | 43° |
| 2026-04-24 22:38 | 33.94192 | -115.59231 | 33819 ft | 524 kts | 43° |
| 2026-04-24 22:38 | 33.96631 | -115.55971 | 34106 ft | 523 kts | 43° |
| 2026-04-24 22:38 | 33.99068 | -115.52713 | 34262 ft | 525 kts | 43° |
| 2026-04-24 22:39 | 34.01515 | -115.49439 | 34384 ft | 527 kts | 43° |
| 2026-04-24 22:39 | 34.03965 | -115.46159 | 34615 ft | 526 kts | 43° |
| 2026-04-24 22:39 | 34.06413 | -115.42874 | 34918 ft | 524 kts | 42° |
| 2026-04-24 22:39 | 34.08844 | -115.39608 | 35198 ft | 522 kts | 42° |
| 2026-04-24 22:40 | 34.11266 | -115.36353 | 35414 ft | 521 kts | 42° |
| 2026-04-24 22:40 | 34.13690 | -115.33093 | 35605 ft | 521 kts | 42° |
| 2026-04-24 22:40 | 34.16117 | -115.29826 | 35802 ft | 522 kts | 42° |
| 2026-04-24 22:40 | 34.18541 | -115.26561 | 36032 ft | 521 kts | 42° |
| 2026-04-24 22:41 | 34.20922 | -115.23350 | 36287 ft | 519 kts | 42° |
| 2026-04-24 22:41 | 34.23329 | -115.20099 | 36494 ft | 518 kts | 41° |
| 2026-04-24 22:41 | 34.25729 | -115.16856 | 36672 ft | 518 kts | 41° |
| 2026-04-24 22:41 | 34.28135 | -115.13603 | 36797 ft | 518 kts | 41° |
| 2026-04-24 22:42 | 34.32961 | -115.07073 | 36810 ft | 521 kts | 42° |
| 2026-04-24 22:42 | 34.37771 | -115.00543 | 36808 ft | 517 kts | 42° |
| 2026-04-24 22:43 | 34.42520 | -114.94083 | 36800 ft | 514 kts | 42° |
| 2026-04-24 22:43 | 34.47271 | -114.87613 | 36792 ft | 512 kts | 42° |
| 2026-04-24 22:44 | 34.51994 | -114.81169 | 36803 ft | 509 kts | 42° |
| 2026-04-24 22:44 | 34.56658 | -114.74795 | 36803 ft | 508 kts | 42° |
| 2026-04-24 22:45 | 34.61358 | -114.68360 | 36813 ft | 509 kts | 42° |
| 2026-04-24 22:45 | 34.66067 | -114.61902 | 36826 ft | 511 kts | 42° |
| 2026-04-24 22:46 | 34.70760 | -114.55449 | 36823 ft | 513 kts | 42° |
| 2026-04-24 22:46 | 34.75497 | -114.48905 | 36814 ft | 517 kts | 44° |
| 2026-04-24 22:47 | 34.77646 | -114.45371 | 36791 ft | 524 kts | 55° |
| 2026-04-24 22:47 | 34.79440 | -114.41483 | 36820 ft | 527 kts | 58° |
| 2026-04-24 22:47 | 34.82849 | -114.33557 | 36772 ft | 529 kts | 59° |
| 2026-04-24 22:48 | 34.86257 | -114.25601 | 36765 ft | 529 kts | 58° |
| 2026-04-24 22:48 | 34.89685 | -114.17738 | 36748 ft | 529 kts | 58° |
| 2026-04-24 22:49 | 34.93155 | -114.09839 | 36765 ft | 528 kts | 58° |
| 2026-04-24 22:49 | 34.96615 | -114.01957 | 36773 ft | 527 kts | 58° |
| 2026-04-24 22:50 | 35.00062 | -113.94077 | 36770 ft | 526 kts | 58° |
| 2026-04-24 22:50 | 35.03497 | -113.86197 | 36770 ft | 524 kts | 58° |
| 2026-04-24 22:51 | 35.06885 | -113.78406 | 36782 ft | 521 kts | 58° |
| 2026-04-24 22:51 | 35.10284 | -113.70574 | 36789 ft | 521 kts | 58° |
| 2026-04-24 22:52 | 35.13654 | -113.62793 | 36787 ft | 521 kts | 58° |
| 2026-04-24 22:52 | 35.17044 | -113.54946 | 36803 ft | 522 kts | 58° |
| 2026-04-24 22:53 | 35.20440 | -113.47068 | 36810 ft | 522 kts | 58° |
| 2026-04-24 22:53 | 35.23813 | -113.39224 | 36801 ft | 525 kts | 58° |
| 2026-04-24 22:54 | 35.27218 | -113.31286 | 36813 ft | 526 kts | 58° |
| 2026-04-24 22:54 | 35.30598 | -113.23387 | 36819 ft | 528 kts | 58° |
| 2026-04-24 22:55 | 35.34011 | -113.15394 | 36820 ft | 529 kts | 58° |
| 2026-04-24 22:55 | 35.37421 | -113.07386 | 36828 ft | 529 kts | 58° |
| 2026-04-24 22:56 | 35.40801 | -112.99431 | 36828 ft | 529 kts | 59° |
| 2026-04-24 22:56 | 35.44200 | -112.91411 | 36827 ft | 529 kts | 59° |
| 2026-04-24 22:57 | 35.47585 | -112.83406 | 36842 ft | 527 kts | 59° |
| 2026-04-24 22:57 | 35.50962 | -112.75401 | 36845 ft | 528 kts | 59° |
| 2026-04-24 22:58 | 35.54313 | -112.67438 | 36839 ft | 527 kts | 59° |
| 2026-04-24 22:58 | 35.57673 | -112.59434 | 36835 ft | 527 kts | 59° |
| 2026-04-24 22:59 | 35.61026 | -112.51429 | 36837 ft | 526 kts | 59° |
| 2026-04-24 23:00 | 35.66042 | -112.39416 | 36849 ft | 526 kts | 59° |
| 2026-04-24 23:00 | 35.69358 | -112.31451 | 36858 ft | 526 kts | 59° |
| 2026-04-24 23:01 | 35.72696 | -112.23415 | 36865 ft | 526 kts | 59° |
| 2026-04-24 23:01 | 35.76023 | -112.15383 | 36865 ft | 527 kts | 59° |
| 2026-04-24 23:02 | 35.79330 | -112.07381 | 36864 ft | 527 kts | 59° |
| 2026-04-24 23:02 | 35.82659 | -111.99307 | 36852 ft | 528 kts | 59° |
| 2026-04-24 23:03 | 35.85987 | -111.91214 | 36905 ft | 528 kts | 59° |
| 2026-04-24 23:03 | 35.89285 | -111.83172 | 36872 ft | 529 kts | 59° |
| 2026-04-24 23:04 | 35.92598 | -111.75076 | 36869 ft | 528 kts | 59° |
| 2026-04-24 23:04 | 35.95907 | -111.66971 | 36798 ft | 529 kts | 59° |
| 2026-04-24 23:05 | 35.99214 | -111.58847 | 36802 ft | 528 kts | 59° |
| 2026-04-24 23:05 | 36.02508 | -111.50738 | 36775 ft | 527 kts | 59° |
| 2026-04-24 23:06 | 36.05785 | -111.42647 | 36787 ft | 526 kts | 59° |
| 2026-04-24 23:06 | 36.09059 | -111.34547 | 36778 ft | 526 kts | 59° |
| 2026-04-24 23:07 | 36.12303 | -111.26501 | 36767 ft | 525 kts | 59° |
| 2026-04-24 23:07 | 36.15733 | -111.18509 | 36772 ft | 524 kts | 57° |
| 2026-04-24 23:08 | 36.19257 | -111.10683 | 36779 ft | 523 kts | 56° |
| 2026-04-24 23:08 | 36.22800 | -111.02763 | 36779 ft | 524 kts | 57° |
| 2026-04-24 23:09 | 36.26278 | -110.94881 | 36769 ft | 524 kts | 57° |
| 2026-04-24 23:09 | 36.29761 | -110.86929 | 36776 ft | 525 kts | 57° |
| 2026-04-24 23:10 | 36.33241 | -110.78962 | 36775 ft | 525 kts | 57° |
| 2026-04-24 23:10 | 36.36720 | -110.70984 | 36770 ft | 526 kts | 57° |
| 2026-04-24 23:11 | 36.40204 | -110.62978 | 36778 ft | 525 kts | 57° |
| 2026-04-24 23:11 | 36.43645 | -110.55052 | 36778 ft | 524 kts | 57° |
| 2026-04-24 23:12 | 36.47102 | -110.47070 | 36782 ft | 523 kts | 57° |
| 2026-04-24 23:12 | 36.50550 | -110.39089 | 36774 ft | 523 kts | 58° |
| 2026-04-24 23:13 | 36.53970 | -110.31155 | 36775 ft | 523 kts | 58° |
| 2026-04-24 23:13 | 36.57398 | -110.23182 | 36784 ft | 522 kts | 58° |
| 2026-04-24 23:14 | 36.60825 | -110.15191 | 36780 ft | 523 kts | 58° |
| 2026-04-24 23:14 | 36.64244 | -110.07202 | 36770 ft | 524 kts | 58° |
| 2026-04-24 23:15 | 36.67652 | -109.99218 | 36765 ft | 524 kts | 58° |
| 2026-04-24 23:15 | 36.71076 | -109.91176 | 36747 ft | 525 kts | 58° |
| 2026-04-24 23:16 | 36.73918 | -109.84485 | 36756 ft | 525 kts | 58° |
| 2026-04-24 23:16 | 36.77333 | -109.76428 | 36760 ft | 525 kts | 58° |
| 2026-04-24 23:17 | 36.80746 | -109.68356 | 36752 ft | 526 kts | 58° |
| 2026-04-24 23:17 | 36.84163 | -109.60253 | 36749 ft | 527 kts | 58° |
| 2026-04-24 23:18 | 36.87557 | -109.52185 | 36745 ft | 527 kts | 58° |
| 2026-04-24 23:18 | 36.90960 | -109.44076 | 36754 ft | 527 kts | 58° |
| 2026-04-24 23:19 | 36.94359 | -109.35955 | 36749 ft | 527 kts | 58° |
| 2026-04-24 23:19 | 36.97752 | -109.27828 | 36752 ft | 526 kts | 58° |
| 2026-04-24 23:20 | 37.01129 | -109.19719 | 36761 ft | 525 kts | 58° |
| 2026-04-24 23:20 | 37.04474 | -109.11666 | 36758 ft | 524 kts | 58° |
| 2026-04-24 23:21 | 37.07828 | -109.03571 | 36770 ft | 524 kts | 58° |
| 2026-04-24 23:21 | 37.11180 | -108.95465 | 36805 ft | 523 kts | 58° |
| 2026-04-24 23:22 | 37.14528 | -108.87344 | 36780 ft | 524 kts | 58° |
| 2026-04-24 23:22 | 37.17851 | -108.79262 | 36791 ft | 523 kts | 58° |
| 2026-04-24 23:23 | 37.21190 | -108.71123 | 36788 ft | 523 kts | 58° |
| 2026-04-24 23:23 | 37.24496 | -108.63042 | 36824 ft | 522 kts | 58° |
| 2026-04-24 23:24 | 37.27814 | -108.54913 | 36900 ft | 524 kts | 58° |
| 2026-04-24 23:24 | 37.31130 | -108.46766 | 36902 ft | 523 kts | 58° |
| 2026-04-24 23:25 | 37.34439 | -108.38616 | 36881 ft | 523 kts | 58° |
| 2026-04-24 23:25 | 37.37739 | -108.30467 | 36885 ft | 522 kts | 58° |
| 2026-04-24 23:26 | 37.41032 | -108.22316 | 36865 ft | 523 kts | 58° |
| 2026-04-24 23:26 | 37.44306 | -108.14188 | 36890 ft | 523 kts | 59° |
| 2026-04-24 23:27 | 37.47597 | -108.05998 | 36882 ft | 524 kts | 59° |
| 2026-04-24 23:27 | 37.50851 | -107.97760 | 36892 ft | 527 kts | 61° |
| 2026-04-24 23:28 | 37.53792 | -107.89294 | 36906 ft | 526 kts | 63° |
| 2026-04-24 23:28 | 37.56595 | -107.80826 | 36892 ft | 527 kts | 64° |
| 2026-04-24 23:29 | 37.59438 | -107.72311 | 36937 ft | 525 kts | 63° |
| 2026-04-24 23:29 | 37.62298 | -107.63837 | 36923 ft | 524 kts | 63° |
| 2026-04-24 23:30 | 37.65155 | -107.55391 | 36930 ft | 521 kts | 63° |
| 2026-04-24 23:30 | 37.67983 | -107.47001 | 36931 ft | 519 kts | 63° |
| 2026-04-24 23:31 | 37.70803 | -107.38607 | 36940 ft | 519 kts | 63° |
| 2026-04-24 23:31 | 37.73601 | -107.30252 | 36932 ft | 520 kts | 63° |
| 2026-04-24 23:32 | 37.76412 | -107.21833 | 36932 ft | 520 kts | 63° |
| 2026-04-24 23:32 | 37.79219 | -107.13397 | 36915 ft | 520 kts | 63° |
| 2026-04-24 23:33 | 37.82024 | -107.04949 | 36922 ft | 522 kts | 63° |
| 2026-04-24 23:33 | 37.84816 | -106.96511 | 36908 ft | 523 kts | 63° |
| 2026-04-24 23:34 | 37.87628 | -106.87991 | 36910 ft | 525 kts | 64° |
| 2026-04-24 23:34 | 37.90440 | -106.79443 | 36897 ft | 526 kts | 63° |
| 2026-04-24 23:35 | 37.93244 | -106.70892 | 36863 ft | 524 kts | 63° |
| 2026-04-24 23:35 | 37.96022 | -106.62398 | 36858 ft | 523 kts | 64° |
| 2026-04-24 23:36 | 37.98800 | -106.53877 | 36843 ft | 521 kts | 64° |
| 2026-04-24 23:36 | 38.01556 | -106.45399 | 36832 ft | 519 kts | 64° |
| 2026-04-24 23:37 | 38.04284 | -106.36984 | 36819 ft | 517 kts | 64° |
| 2026-04-24 23:37 | 38.08364 | -106.24352 | 36775 ft | 514 kts | 64° |
| 2026-04-24 23:38 | 38.11066 | -106.15953 | 36764 ft | 512 kts | 64° |
| 2026-04-24 23:38 | 38.13758 | -106.07562 | 36766 ft | 512 kts | 64° |
| 2026-04-24 23:39 | 38.16443 | -105.99172 | 36752 ft | 513 kts | 64° |
| 2026-04-24 23:39 | 38.19110 | -105.90811 | 36758 ft | 513 kts | 64° |
| 2026-04-24 23:40 | 38.21792 | -105.82376 | 36763 ft | 514 kts | 64° |
| 2026-04-24 23:40 | 38.24461 | -105.73959 | 36762 ft | 516 kts | 64° |
| 2026-04-24 23:41 | 38.27149 | -105.65452 | 36726 ft | 516 kts | 64° |
| 2026-04-24 23:41 | 38.29818 | -105.56982 | 36756 ft | 516 kts | 64° |
| 2026-04-24 23:42 | 38.32489 | -105.48480 | 36759 ft | 518 kts | 64° |
| 2026-04-24 23:42 | 38.35161 | -105.39951 | 36743 ft | 518 kts | 64° |
| 2026-04-24 23:43 | 38.37690 | -105.31415 | 36752 ft | 518 kts | 67° |
| 2026-04-24 23:43 | 38.39990 | -105.22697 | 36724 ft | 518 kts | 68° |
| 2026-04-24 23:44 | 38.42266 | -105.13978 | 36716 ft | 518 kts | 68° |
| 2026-04-24 23:44 | 38.44577 | -105.05269 | 36706 ft | 518 kts | 68° |
| 2026-04-24 23:45 | 38.46900 | -104.96573 | 36707 ft | 517 kts | 68° |
| 2026-04-24 23:45 | 38.49218 | -104.87875 | 36703 ft | 517 kts | 67° |
| 2026-04-24 23:46 | 38.51516 | -104.79215 | 36703 ft | 517 kts | 68° |
| 2026-04-24 23:46 | 38.53817 | -104.70508 | 36707 ft | 516 kts | 68° |
| 2026-04-24 23:47 | 38.56108 | -104.61805 | 36693 ft | 516 kts | 68° |
| 2026-04-24 23:47 | 38.58390 | -104.53111 | 36692 ft | 516 kts | 68° |
| 2026-04-24 23:48 | 38.60662 | -104.44424 | 36682 ft | 516 kts | 68° |
| 2026-04-24 23:48 | 38.62920 | -104.35760 | 36678 ft | 516 kts | 68° |
| 2026-04-24 23:49 | 38.65180 | -104.27057 | 36680 ft | 516 kts | 68° |
| 2026-04-24 23:49 | 38.67425 | -104.18382 | 36694 ft | 516 kts | 68° |
| 2026-04-24 23:50 | 38.69680 | -104.09639 | 36692 ft | 517 kts | 68° |
| 2026-04-24 23:50 | 38.71929 | -104.00888 | 36686 ft | 518 kts | 68° |
| 2026-04-24 23:51 | 38.74176 | -103.92113 | 36696 ft | 518 kts | 68° |
| 2026-04-24 23:51 | 38.76423 | -103.83307 | 36698 ft | 520 kts | 68° |
| 2026-04-24 23:52 | 38.78652 | -103.74541 | 36698 ft | 520 kts | 68° |
| 2026-04-24 23:52 | 38.80889 | -103.65712 | 36696 ft | 520 kts | 68° |
| 2026-04-24 23:53 | 38.83253 | -103.56942 | 36689 ft | 518 kts | 65° |
| 2026-04-24 23:53 | 38.85906 | -103.48339 | 36699 ft | 517 kts | 64° |
| 2026-04-24 23:54 | 38.88586 | -103.39772 | 36694 ft | 517 kts | 64° |
| 2026-04-24 23:54 | 38.91206 | -103.31232 | 36693 ft | 517 kts | 65° |
| 2026-04-24 23:55 | 38.93807 | -103.22628 | 36691 ft | 516 kts | 65° |
| 2026-04-24 23:55 | 38.96395 | -103.14024 | 36695 ft | 516 kts | 65° |
| 2026-04-24 23:56 | 38.98974 | -103.05427 | 36704 ft | 515 kts | 65° |
| 2026-04-24 23:56 | 39.01547 | -102.96832 | 36701 ft | 515 kts | 65° |
| 2026-04-24 23:57 | 39.04114 | -102.88232 | 36699 ft | 514 kts | 65° |
| 2026-04-24 23:57 | 39.06673 | -102.79630 | 36705 ft | 513 kts | 65° |
| 2026-04-24 23:58 | 39.09199 | -102.71111 | 36708 ft | 512 kts | 65° |
| 2026-04-24 23:58 | 39.11735 | -102.62534 | 36738 ft | 512 kts | 65° |
| 2026-04-24 23:59 | 39.14268 | -102.53938 | 36751 ft | 513 kts | 65° |
| 2026-04-24 23:59 | 39.16794 | -102.45337 | 36764 ft | 513 kts | 65° |
| 2026-04-25 00:00 | 39.19311 | -102.36740 | 36780 ft | 512 kts | 66° |
| 2026-04-25 00:00 | 39.21806 | -102.28188 | 36778 ft | 513 kts | 66° |
| 2026-04-25 00:01 | 39.24312 | -102.19572 | 36777 ft | 513 kts | 66° |
| 2026-04-25 00:01 | 39.26812 | -102.10948 | 36728 ft | 513 kts | 66° |
| 2026-04-25 00:02 | 39.28888 | -102.03767 | 36724 ft | 513 kts | 66° |
| 2026-04-25 00:02 | 39.31374 | -101.95140 | 36750 ft | 512 kts | 66° |
| 2026-04-25 00:03 | 39.33858 | -101.86492 | 36760 ft | 512 kts | 66° |
| 2026-04-25 00:03 | 39.36327 | -101.77869 | 36766 ft | 511 kts | 66° |
| 2026-04-25 00:04 | 39.38778 | -101.69301 | 36732 ft | 510 kts | 65° |
| 2026-04-25 00:04 | 39.42172 | -101.59635 | 36739 ft | 506 kts | 60° |
| 2026-04-25 00:05 | 39.44789 | -101.52824 | 36749 ft | 504 kts | 59° |
| 2026-04-25 00:05 | 39.47866 | -101.44719 | 36763 ft | 504 kts | 60° |
| 2026-04-25 00:06 | 39.50908 | -101.36524 | 36755 ft | 503 kts | 61° |
| 2026-04-25 00:06 | 39.53912 | -101.28343 | 36777 ft | 502 kts | 61° |
| 2026-04-25 00:07 | 39.56902 | -101.20172 | 36796 ft | 501 kts | 61° |
| 2026-04-25 00:07 | 39.59865 | -101.12064 | 36799 ft | 500 kts | 61° |
| 2026-04-25 00:08 | 39.62840 | -101.03904 | 36799 ft | 499 kts | 61° |
| 2026-04-25 00:08 | 39.65807 | -100.95744 | 36811 ft | 499 kts | 61° |
| 2026-04-25 00:09 | 39.68750 | -100.87626 | 36813 ft | 500 kts | 61° |
| 2026-04-25 00:09 | 39.71706 | -100.79451 | 36814 ft | 500 kts | 61° |
| 2026-04-25 00:10 | 39.74660 | -100.71259 | 36808 ft | 501 kts | 61° |
| 2026-04-25 00:10 | 39.77615 | -100.63038 | 36818 ft | 502 kts | 62° |
| 2026-04-25 00:11 | 39.80564 | -100.54812 | 36807 ft | 502 kts | 62° |
| 2026-04-25 00:11 | 39.83495 | -100.46613 | 36802 ft | 502 kts | 62° |
| 2026-04-25 00:12 | 39.86440 | -100.38353 | 36807 ft | 503 kts | 62° |
| 2026-04-25 00:12 | 39.89377 | -100.30089 | 36827 ft | 503 kts | 62° |
| 2026-04-25 00:13 | 39.92311 | -100.21810 | 36830 ft | 503 kts | 62° |
| 2026-04-25 00:13 | 39.95238 | -100.13529 | 36834 ft | 502 kts | 62° |
| 2026-04-25 00:14 | 39.98154 | -100.05256 | 36827 ft | 502 kts | 62° |
| 2026-04-25 00:14 | 40.00992 | -99.97001 | 36835 ft | 502 kts | 65° |
| 2026-04-25 00:15 | 40.03566 | -99.88513 | 36836 ft | 502 kts | 66° |
| 2026-04-25 00:15 | 40.06054 | -99.79991 | 36864 ft | 502 kts | 66° |
| 2026-04-25 00:16 | 40.08562 | -99.71479 | 36844 ft | 501 kts | 66° |
| 2026-04-25 00:16 | 40.11078 | -99.63010 | 36843 ft | 499 kts | 66° |
| 2026-04-25 00:17 | 40.13576 | -99.54613 | 36843 ft | 498 kts | 66° |
| 2026-04-25 00:17 | 40.16078 | -99.46170 | 36854 ft | 496 kts | 66° |
| 2026-04-25 00:18 | 40.18566 | -99.37744 | 36856 ft | 495 kts | 66° |
| 2026-04-25 00:18 | 40.21026 | -99.29386 | 36857 ft | 495 kts | 66° |
| 2026-04-25 00:19 | 40.23491 | -99.20979 | 36862 ft | 495 kts | 66° |
| 2026-04-25 00:19 | 40.25956 | -99.12548 | 36859 ft | 496 kts | 66° |
| 2026-04-25 00:20 | 40.28418 | -99.04101 | 36862 ft | 497 kts | 67° |
| 2026-04-25 00:20 | 40.30880 | -98.95628 | 36868 ft | 498 kts | 67° |
| 2026-04-25 00:21 | 40.33340 | -98.87130 | 36873 ft | 499 kts | 67° |
| 2026-04-25 00:21 | 40.35785 | -98.78659 | 36876 ft | 500 kts | 67° |
| 2026-04-25 00:22 | 40.38244 | -98.70109 | 36870 ft | 501 kts | 67° |
| 2026-04-25 00:22 | 40.40703 | -98.61532 | 36878 ft | 502 kts | 67° |
| 2026-04-25 00:23 | 40.43158 | -98.52942 | 36879 ft | 502 kts | 68° |
| 2026-04-25 00:23 | 40.45592 | -98.44397 | 36881 ft | 502 kts | 68° |
| 2026-04-25 00:24 | 40.48032 | -98.35798 | 36880 ft | 502 kts | 68° |
| 2026-04-25 00:24 | 40.50462 | -98.27211 | 36877 ft | 501 kts | 68° |
| 2026-04-25 00:25 | 40.52885 | -98.18619 | 36883 ft | 501 kts | 68° |
| 2026-04-25 00:25 | 40.55284 | -98.10081 | 36886 ft | 500 kts | 68° |
| 2026-04-25 00:26 | 40.57688 | -98.01499 | 36891 ft | 500 kts | 68° |
| 2026-04-25 00:26 | 40.60084 | -97.92916 | 36894 ft | 499 kts | 68° |
| 2026-04-25 00:27 | 40.62476 | -97.84320 | 36898 ft | 499 kts | 68° |
| 2026-04-25 00:27 | 40.64859 | -97.75725 | 36906 ft | 499 kts | 68° |
| 2026-04-25 00:28 | 40.67237 | -97.67119 | 36905 ft | 500 kts | 68° |
| 2026-04-25 00:28 | 40.69599 | -97.58543 | 36914 ft | 500 kts | 68° |
| 2026-04-25 00:29 | 40.71967 | -97.49916 | 36907 ft | 500 kts | 69° |
| 2026-04-25 00:29 | 40.74336 | -97.41255 | 36906 ft | 501 kts | 69° |
| 2026-04-25 00:30 | 40.76677 | -97.32664 | 36909 ft | 501 kts | 69° |
| 2026-04-25 00:30 | 40.79028 | -97.24013 | 36917 ft | 501 kts | 69° |
| 2026-04-25 00:31 | 40.81374 | -97.15345 | 36913 ft | 501 kts | 69° |
| 2026-04-25 00:31 | 40.83715 | -97.06665 | 36915 ft | 501 kts | 69° |
| 2026-04-25 00:32 | 40.86038 | -96.98025 | 36916 ft | 501 kts | 69° |
| 2026-04-25 00:32 | 40.88369 | -96.89324 | 36918 ft | 502 kts | 69° |
| 2026-04-25 00:33 | 40.90690 | -96.80630 | 36906 ft | 501 kts | 69° |
| 2026-04-25 00:33 | 40.93112 | -96.71982 | 36910 ft | 500 kts | 63° |
| 2026-04-25 00:34 | 40.96200 | -96.63740 | 36922 ft | 499 kts | 60° |
| 2026-04-25 00:34 | 40.99407 | -96.55624 | 36922 ft | 499 kts | 60° |
| 2026-04-25 00:35 | 41.02585 | -96.47432 | 36922 ft | 499 kts | 61° |
| 2026-04-25 00:35 | 41.05690 | -96.39259 | 36918 ft | 499 kts | 62° |
| 2026-04-25 00:36 | 41.08788 | -96.31031 | 36919 ft | 498 kts | 62° |
| 2026-04-25 00:36 | 41.11881 | -96.22796 | 36918 ft | 498 kts | 62° |
| 2026-04-25 00:37 | 41.14967 | -96.14561 | 36918 ft | 498 kts | 62° |
| 2026-04-25 00:37 | 41.18051 | -96.06316 | 36905 ft | 498 kts | 62° |
| 2026-04-25 00:38 | 41.21126 | -95.98071 | 36925 ft | 498 kts | 62° |
| 2026-04-25 00:38 | 41.24171 | -95.89881 | 36924 ft | 497 kts | 62° |
| 2026-04-25 00:39 | 41.27231 | -95.81628 | 36918 ft | 497 kts | 62° |
| 2026-04-25 00:39 | 41.30285 | -95.73369 | 36917 ft | 497 kts | 62° |
| 2026-04-25 00:40 | 41.33330 | -95.65108 | 36917 ft | 497 kts | 63° |
| 2026-04-25 00:40 | 41.36366 | -95.56850 | 36930 ft | 497 kts | 63° |
| 2026-04-25 00:41 | 41.39399 | -95.48576 | 36930 ft | 496 kts | 63° |
| 2026-04-25 00:41 | 41.42422 | -95.40304 | 36927 ft | 496 kts | 63° |
| 2026-04-25 00:42 | 41.45418 | -95.32084 | 36923 ft | 496 kts | 63° |
| 2026-04-25 00:42 | 41.48433 | -95.23787 | 36921 ft | 496 kts | 63° |
| 2026-04-25 00:43 | 41.51443 | -95.15479 | 36937 ft | 496 kts | 63° |
| 2026-04-25 00:43 | 41.54445 | -95.07170 | 36938 ft | 497 kts | 63° |
| 2026-04-25 00:44 | 41.57442 | -94.98851 | 36936 ft | 497 kts | 63° |
| 2026-04-25 00:44 | 41.60418 | -94.90565 | 36928 ft | 497 kts | 64° |
| 2026-04-25 00:45 | 41.63400 | -94.82237 | 36937 ft | 497 kts | 64° |
| 2026-04-25 00:45 | 41.66382 | -94.73886 | 36937 ft | 497 kts | 64° |
| 2026-04-25 00:46 | 41.69359 | -94.65524 | 36961 ft | 498 kts | 64° |
| 2026-04-25 00:47 | 41.73820 | -94.52945 | 36937 ft | 498 kts | 64° |
| 2026-04-25 00:47 | 41.76766 | -94.44607 | 36936 ft | 498 kts | 64° |
| 2026-04-25 00:48 | 41.79722 | -94.36217 | 36923 ft | 498 kts | 64° |
| 2026-04-25 00:48 | 41.82674 | -94.27815 | 36918 ft | 498 kts | 64° |
| 2026-04-25 00:49 | 41.85619 | -94.19405 | 36902 ft | 498 kts | 64° |
| 2026-04-25 00:49 | 41.88540 | -94.11040 | 36911 ft | 497 kts | 65° |
| 2026-04-25 00:50 | 41.91467 | -94.02630 | 36925 ft | 497 kts | 65° |
| 2026-04-25 00:50 | 41.93902 | -93.95618 | 36935 ft | 498 kts | 65° |
| 2026-04-25 00:51 | 41.96824 | -93.87176 | 36928 ft | 498 kts | 65° |
| 2026-04-25 00:51 | 41.99742 | -93.78721 | 36908 ft | 498 kts | 65° |
| 2026-04-25 00:52 | 42.02634 | -93.70315 | 36940 ft | 498 kts | 65° |
| 2026-04-25 00:52 | 42.05533 | -93.61864 | 36947 ft | 498 kts | 65° |
| 2026-04-25 00:53 | 42.08428 | -93.53402 | 36944 ft | 498 kts | 65° |
| 2026-04-25 00:53 | 42.11533 | -93.45070 | 36947 ft | 498 kts | 62° |
| 2026-04-25 00:54 | 42.14813 | -93.36854 | 36946 ft | 498 kts | 62° |
| 2026-04-25 00:54 | 42.18085 | -93.28616 | 36947 ft | 498 kts | 62° |
| 2026-04-25 00:55 | 42.21323 | -93.20340 | 36942 ft | 498 kts | 62° |
| 2026-04-25 00:55 | 42.24521 | -93.12099 | 36947 ft | 498 kts | 62° |
| 2026-04-25 00:56 | 42.27728 | -93.03807 | 36930 ft | 498 kts | 63° |
| 2026-04-25 00:56 | 42.30932 | -92.95505 | 36943 ft | 498 kts | 63° |
| 2026-04-25 00:57 | 42.34128 | -92.87200 | 36945 ft | 498 kts | 63° |
| 2026-04-25 00:57 | 42.37317 | -92.78886 | 36961 ft | 498 kts | 64° |
| 2026-04-25 00:58 | 42.39468 | -92.70053 | 36952 ft | 494 kts | 81° |
| 2026-04-25 00:58 | 42.40708 | -92.60903 | 36927 ft | 494 kts | 82° |
| 2026-04-25 00:59 | 42.41932 | -92.51803 | 36932 ft | 494 kts | 82° |
| 2026-04-25 00:59 | 42.43208 | -92.42657 | 36925 ft | 495 kts | 81° |
| 2026-04-25 01:00 | 42.44507 | -92.33490 | 36926 ft | 495 kts | 81° |
| 2026-04-25 01:00 | 42.45801 | -92.24333 | 36921 ft | 495 kts | 82° |
| 2026-04-25 01:01 | 42.47086 | -92.15169 | 36952 ft | 495 kts | 82° |
| 2026-04-25 01:01 | 42.48364 | -92.05982 | 36957 ft | 496 kts | 82° |
| 2026-04-25 01:02 | 42.49626 | -91.96848 | 36954 ft | 497 kts | 82° |
| 2026-04-25 01:02 | 42.50892 | -91.87634 | 36939 ft | 497 kts | 83° |
| 2026-04-25 01:03 | 42.52154 | -91.78392 | 36932 ft | 498 kts | 83° |
| 2026-04-25 01:03 | 42.53407 | -91.69157 | 36931 ft | 498 kts | 83° |
| 2026-04-25 01:04 | 42.54646 | -91.59963 | 36930 ft | 498 kts | 83° |
| 2026-04-25 01:04 | 42.55887 | -91.50702 | 36900 ft | 499 kts | 83° |
| 2026-04-25 01:05 | 42.57120 | -91.41442 | 36920 ft | 498 kts | 83° |
| 2026-04-25 01:05 | 42.58343 | -91.32188 | 36923 ft | 498 kts | 83° |
| 2026-04-25 01:06 | 42.59560 | -91.22926 | 36918 ft | 498 kts | 83° |
| 2026-04-25 01:06 | 42.60767 | -91.13678 | 36625 ft | 503 kts | 84° |
| 2026-04-25 01:06 | 42.61375 | -91.08988 | 36138 ft | 503 kts | 84° |
| 2026-04-25 01:07 | 42.61982 | -91.04307 | 35549 ft | 502 kts | 84° |
| 2026-04-25 01:07 | 42.62585 | -90.99633 | 34926 ft | 503 kts | 84° |
| 2026-04-25 01:07 | 42.63187 | -90.94947 | 34274 ft | 505 kts | 84° |
| 2026-04-25 01:07 | 42.63791 | -90.90231 | 33540 ft | 507 kts | 84° |
| 2026-04-25 01:08 | 42.64387 | -90.85562 | 32818 ft | 508 kts | 84° |
| 2026-04-25 01:08 | 42.64989 | -90.80833 | 32104 ft | 508 kts | 83° |
| 2026-04-25 01:08 | 42.65588 | -90.76110 | 31478 ft | 506 kts | 83° |
| 2026-04-25 01:08 | 42.66183 | -90.71424 | 31006 ft | 501 kts | 84° |
| 2026-04-25 01:09 | 42.66771 | -90.66763 | 30535 ft | 498 kts | 83° |
| 2026-04-25 01:09 | 42.67353 | -90.62131 | 30059 ft | 494 kts | 83° |
| 2026-04-25 01:09 | 42.67927 | -90.57545 | 29508 ft | 491 kts | 83° |
| 2026-04-25 01:09 | 42.68495 | -90.52988 | 28965 ft | 486 kts | 83° |
| 2026-04-25 01:10 | 42.69049 | -90.48528 | 28481 ft | 481 kts | 83° |
| 2026-04-25 01:10 | 42.69602 | -90.44063 | 27977 ft | 477 kts | 82° |
| 2026-04-25 01:10 | 42.70149 | -90.39635 | 27504 ft | 472 kts | 82° |
| 2026-04-25 01:10 | 42.70688 | -90.35255 | 27003 ft | 467 kts | 82° |
| 2026-04-25 01:11 | 42.71220 | -90.30911 | 26524 ft | 463 kts | 82° |
| 2026-04-25 01:11 | 42.71747 | -90.26609 | 26051 ft | 458 kts | 82° |
| 2026-04-25 01:11 | 42.72265 | -90.22357 | 25584 ft | 454 kts | 82° |
| 2026-04-25 01:11 | 42.72739 | -90.18179 | 25122 ft | 449 kts | 84° |
| 2026-04-25 01:12 | 42.72997 | -90.13968 | 24665 ft | 444 kts | 88° |
| 2026-04-25 01:12 | 42.73126 | -90.09786 | 24206 ft | 440 kts | 89° |
| 2026-04-25 01:12 | 42.73215 | -90.05643 | 23751 ft | 436 kts | 89° |
| 2026-04-25 01:12 | 42.73304 | -90.01523 | 23263 ft | 433 kts | 88° |
| 2026-04-25 01:13 | 42.73408 | -89.97456 | 22728 ft | 428 kts | 88° |
| 2026-04-25 01:13 | 42.73526 | -89.93428 | 22294 ft | 423 kts | 88° |
| 2026-04-25 01:13 | 42.73652 | -89.89454 | 21846 ft | 418 kts | 88° |
| 2026-04-25 01:13 | 42.73780 | -89.85575 | 21400 ft | 414 kts | 88° |
| 2026-04-25 01:14 | 42.73911 | -89.81683 | 20972 ft | 409 kts | 88° |
| 2026-04-25 01:14 | 42.74040 | -89.77828 | 20529 ft | 406 kts | 88° |
| 2026-04-25 01:14 | 42.74167 | -89.74002 | 20098 ft | 402 kts | 88° |
| 2026-04-25 01:14 | 42.74289 | -89.70259 | 19679 ft | 399 kts | 88° |
| 2026-04-25 01:15 | 42.74412 | -89.66456 | 19250 ft | 396 kts | 88° |
| 2026-04-25 01:15 | 42.74529 | -89.62780 | 18845 ft | 393 kts | 88° |
| 2026-04-25 01:15 | 42.74646 | -89.59079 | 18426 ft | 390 kts | 88° |
| 2026-04-25 01:15 | 42.74761 | -89.55391 | 17988 ft | 388 kts | 88° |
| 2026-04-25 01:16 | 42.74874 | -89.51731 | 17523 ft | 385 kts | 88° |
| 2026-04-25 01:16 | 42.74986 | -89.48090 | 17082 ft | 383 kts | 88° |
| 2026-04-25 01:16 | 42.75095 | -89.44488 | 16682 ft | 379 kts | 88° |
| 2026-04-25 01:16 | 42.75200 | -89.40976 | 16376 ft | 374 kts | 88° |
| 2026-04-25 01:17 | 42.75304 | -89.37449 | 15966 ft | 372 kts | 87° |
| 2026-04-25 01:17 | 42.75407 | -89.33950 | 15567 ft | 370 kts | 87° |
| 2026-04-25 01:17 | 42.75509 | -89.30456 | 15163 ft | 368 kts | 87° |
| 2026-04-25 01:17 | 42.75609 | -89.26979 | 14767 ft | 366 kts | 87° |
| 2026-04-25 01:18 | 42.75709 | -89.23513 | 14364 ft | 365 kts | 87° |
| 2026-04-25 01:18 | 42.75805 | -89.20103 | 13954 ft | 365 kts | 86° |
| 2026-04-25 01:18 | 42.75899 | -89.16655 | 13495 ft | 365 kts | 86° |
| 2026-04-25 01:18 | 42.75977 | -89.13182 | 12940 ft | 367 kts | 86° |
| 2026-04-25 01:19 | 42.76049 | -89.09709 | 12526 ft | 365 kts | 86° |
| 2026-04-25 01:19 | 42.76119 | -89.06267 | 12117 ft | 363 kts | 86° |
| 2026-04-25 01:19 | 42.76189 | -89.02842 | 11727 ft | 360 kts | 86° |
| 2026-04-25 01:19 | 42.76281 | -88.99451 | 11380 ft | 356 kts | 85° |
| 2026-04-25 01:20 | 42.76415 | -88.96099 | 11007 ft | 353 kts | 84° |
| 2026-04-25 01:20 | 42.76554 | -88.92773 | 10705 ft | 349 kts | 84° |
| 2026-04-25 01:20 | 42.76682 | -88.89531 | 10571 ft | 338 kts | 84° |
| 2026-04-25 01:20 | 42.76801 | -88.86406 | 10417 ft | 323 kts | 84° |
| 2026-04-25 01:21 | 42.76891 | -88.83416 | 10273 ft | 308 kts | 85° |
| 2026-04-25 01:21 | 42.76956 | -88.80604 | 10151 ft | 295 kts | 85° |
| 2026-04-25 01:21 | 42.77018 | -88.77851 | 10041 ft | 287 kts | 85° |
| 2026-04-25 01:21 | 42.77082 | -88.75152 | 9837 ft | 284 kts | 85° |
| 2026-04-25 01:22 | 42.77146 | -88.72472 | 9572 ft | 282 kts | 85° |
| 2026-04-25 01:22 | 42.77208 | -88.69807 | 9302 ft | 281 kts | 85° |
| 2026-04-25 01:22 | 42.77272 | -88.67152 | 9076 ft | 281 kts | 84° |
| 2026-04-25 01:22 | 42.77538 | -88.64504 | 9040 ft | 289 kts | 73° |
| 2026-04-25 01:23 | 42.78054 | -88.61803 | 9015 ft | 298 kts | 71° |
| 2026-04-25 01:23 | 42.78582 | -88.59085 | 9012 ft | 296 kts | 72° |
| 2026-04-25 01:23 | 42.79031 | -88.56362 | 8992 ft | 296 kts | 81° |
| 2026-04-25 01:23 | 42.79110 | -88.53548 | 8926 ft | 300 kts | 86° |
| 2026-04-25 01:24 | 42.79140 | -88.50721 | 8645 ft | 295 kts | 86° |
| 2026-04-25 01:24 | 42.79216 | -88.47980 | 8377 ft | 285 kts | 84° |
| 2026-04-25 01:24 | 42.79323 | -88.45358 | 8117 ft | 276 kts | 84° |
| 2026-04-25 01:24 | 42.79437 | -88.42775 | 7855 ft | 269 kts | 83° |
| 2026-04-25 01:25 | 42.79552 | -88.40253 | 7606 ft | 266 kts | 83° |
| 2026-04-25 01:25 | 42.79669 | -88.37742 | 7363 ft | 265 kts | 83° |
| 2026-04-25 01:25 | 42.79785 | -88.35243 | 7121 ft | 263 kts | 83° |
| 2026-04-25 01:25 | 42.79899 | -88.32789 | 6870 ft | 256 kts | 83° |
| 2026-04-25 01:26 | 42.80008 | -88.30394 | 6615 ft | 251 kts | 83° |
| 2026-04-25 01:26 | 42.80112 | -88.28051 | 6376 ft | 245 kts | 83° |
| 2026-04-25 01:26 | 42.80212 | -88.25756 | 6122 ft | 241 kts | 83° |
| 2026-04-25 01:26 | 42.80311 | -88.23469 | 5877 ft | 241 kts | 83° |
| 2026-04-25 01:27 | 42.80409 | -88.21210 | 5634 ft | 241 kts | 83° |
| 2026-04-25 01:27 | 42.80506 | -88.18929 | 5384 ft | 242 kts | 83° |
| 2026-04-25 01:27 | 42.80606 | -88.16637 | 5137 ft | 240 kts | 83° |
| 2026-04-25 01:28 | 42.80804 | -88.12179 | 4596 ft | 231 kts | 82° |
| 2026-04-25 01:28 | 42.80907 | -88.10020 | 4357 ft | 225 kts | 82° |
| 2026-04-25 01:28 | 42.81004 | -88.07939 | 4131 ft | 215 kts | 82° |
| 2026-04-25 01:28 | 42.81094 | -88.05952 | 3887 ft | 206 kts | 82° |
| 2026-04-25 01:29 | 42.81183 | -88.04048 | 3628 ft | 198 kts | 82° |
| 2026-04-25 01:29 | 42.81400 | -88.02252 | 3368 ft | 188 kts | 69° |
| 2026-04-25 01:29 | 42.81750 | -88.00597 | 3105 ft | 181 kts | 69° |
| 2026-04-25 01:29 | 42.82095 | -87.98946 | 2924 ft | 181 kts | 69° |
| 2026-04-25 01:30 | 42.82425 | -87.97297 | 2759 ft | 178 kts | 70° |
| 2026-04-25 01:30 | 42.82745 | -87.95655 | 2659 ft | 182 kts | 70° |
| 2026-04-25 01:30 | 42.83059 | -87.94015 | 2604 ft | 174 kts | 70° |
| 2026-04-25 01:30 | 42.83363 | -87.92494 | 2622 ft | 160 kts | 63° |
| 2026-04-25 01:31 | 42.84057 | -87.91460 | 2592 ft | 147 kts | 15° |
| 2026-04-25 01:31 | 42.85060 | -87.91190 | 2333 ft | 145 kts | 8° |
| 2026-04-25 01:31 | 42.86049 | -87.90975 | 2142 ft | 144 kts | 5° |
| 2026-04-25 01:31 | 42.87053 | -87.90794 | 1944 ft | 147 kts | 6° |
| 2026-04-25 01:32 | 42.88039 | -87.90624 | 1750 ft | 143 kts | 5° |
| 2026-04-25 01:32 | 42.89038 | -87.90453 | 1568 ft | 145 kts | 4° |
| 2026-04-25 01:32 | 42.90028 | -87.90283 | 1352 ft | 143 kts | 4° |
| 2026-04-25 01:32 | 42.91018 | -87.90113 | 1167 ft | 143 kts | 5° |
| 2026-04-25 01:33 | 42.91999 | -87.89944 | 991 ft | 141 kts | 5° |
| 2026-04-25 01:33 | 42.92985 | -87.89776 | 805 ft | 144 kts | 5° |
| 2026-04-25 01:33 | 42.93985 | -87.89604 | 688 ft | 143 kts | 5° |
| 2026-04-25 01:33 | 42.94781 | -87.89547 | 685 ft | 46 kts | 325° |
| 2026-04-25 01:34 | 42.94897 | -87.89596 | 685 ft | 12 kts | 3° |
| 2026-04-25 01:34 | 42.94960 | -87.89643 | 680 ft | 6 kts | 289° |
| 2026-04-25 01:34 | 42.94970 | -87.89697 | 683 ft | 6 kts | 283° |
| 2026-04-25 01:34 | 42.94977 | -87.89750 | 681 ft | 6 kts | 282° |
| 2026-04-25 01:35 | 42.95008 | -87.89783 | 687 ft | 6 kts | 323° |
| 2026-04-25 01:35 | 42.95045 | -87.89820 | 684 ft | 8 kts | 323° |
| 2026-04-25 01:35 | 42.95096 | -87.89889 | 684 ft | 12 kts | 308° |
| 2026-04-25 01:35 | 42.95083 | -87.89987 | 685 ft | 7 kts | 230° |
| 2026-04-25 01:36 | 42.95078 | -87.89995 | 686 ft | 0 kts | 231° |